createdAt,value
2023-03-26T00:01:23.881Z,97556.54
2023-03-26T00:03:53.980Z,97558.59
2023-03-26T00:06:23.835Z,97558.80
2023-03-26T00:08:51.859Z,97557.45
2023-03-26T00:11:20.936Z,97555.96
2023-03-26T00:13:47.910Z,97555.51
2023-03-26T00:16:19.812Z,97558.24
2023-03-26T00:18:48.993Z,97555.39
2023-03-26T00:21:20.443Z,97555.31
2023-03-26T00:23:49.263Z,97555.08
2023-03-26T00:26:17.572Z,97555.31
2023-03-26T00:28:44.729Z,97555.31
2023-03-26T00:31:14.951Z,97552.44
2023-03-26T00:33:43.172Z,97559.98
2023-03-26T00:36:14.871Z,97559.48
2023-03-26T00:38:43.103Z,97561.92
2023-03-26T00:41:29.749Z,97566.23
2023-03-26T00:43:58.966Z,97570.41
2023-03-26T00:46:28.282Z,97569.10
2023-03-26T00:48:58.882Z,97558.70
2023-03-26T00:51:27.960Z,97546.12
2023-03-26T00:53:55.858Z,97532.75
2023-03-26T00:56:22.876Z,97540.91
2023-03-26T00:58:50.352Z,97547.13
2023-03-26T01:01:21.644Z,97550.35
2023-03-26T01:04:06.843Z,97552.64
2023-03-26T01:06:36.624Z,97549.97
2023-03-26T01:09:14.630Z,97552.91
2023-03-26T01:11:42.040Z,97541.22
2023-03-26T01:14:13.010Z,97539.91
2023-03-26T01:16:57.645Z,97535.91
2023-03-26T01:19:30.973Z,97525.05
2023-03-26T01:22:00.910Z,97521.29
2023-03-26T01:24:28.575Z,97520.23
2023-03-26T01:27:10.707Z,97515.73
2023-03-26T01:29:44.756Z,97520.02
2023-03-26T01:32:23.132Z,97526.13
2023-03-26T01:35:00.684Z,97524.36
2023-03-26T01:37:37.441Z,97519.05
2023-03-26T01:40:42.907Z,97520.61
2023-03-26T01:43:25.851Z,97516.67
2023-03-26T01:45:53.899Z,97512.90
2023-03-26T01:48:21.046Z,97516.48
2023-03-26T01:50:49.144Z,97515.48
2023-03-26T01:53:16.096Z,97517.30
2023-03-26T01:56:02.229Z,97517.63
2023-03-26T01:58:37.261Z,97518.15
2023-03-26T02:01:24.675Z,97512.91
2023-03-26T02:04:05.330Z,97506.55
2023-03-26T02:06:54.699Z,97509.08
2023-03-26T02:09:27.639Z,97507.87
2023-03-26T02:11:55.913Z,97504.83
2023-03-26T02:14:23.161Z,97504.39
2023-03-26T02:16:51.566Z,97499.45
2023-03-26T02:19:21.969Z,97506.70
2023-03-26T02:21:51.477Z,97499.66
2023-03-26T02:24:19.939Z,97502.63
2023-03-26T02:26:47.779Z,97501.73
2023-03-26T02:29:19.490Z,97507.50
2023-03-26T02:31:48.579Z,97501.98
2023-03-26T02:34:16.913Z,97502.04
2023-03-26T02:36:52.763Z,97506.45
2023-03-26T02:39:19.649Z,97505.42
2023-03-26T02:41:52.623Z,97504.34
2023-03-26T02:44:19.823Z,97508.93
2023-03-26T02:47:02.089Z,97506.66
2023-03-26T02:49:44.071Z,97507.78
2023-03-26T02:52:17.113Z,97514.16
2023-03-26T02:54:44.311Z,97519.60
2023-03-26T02:57:20.824Z,97516.30
2023-03-26T03:00:06.004Z,97516.40
2023-03-26T03:02:39.449Z,97516.95
2023-03-26T03:05:26.723Z,97513.74
2023-03-26T03:08:06.063Z,97503.98
2023-03-26T03:10:33.634Z,97503.48
2023-03-26T03:13:07.899Z,97496.18
2023-03-26T03:15:35.745Z,97493.93
2023-03-26T03:18:02.732Z,97490.43
2023-03-26T03:20:35.333Z,97486.08
2023-03-26T03:23:02.615Z,97484.15
2023-03-26T03:25:29.659Z,97482.55
2023-03-26T03:27:56.610Z,97484.23
2023-03-26T03:30:23.399Z,97496.26
2023-03-26T03:33:06.293Z,97492.70
2023-03-26T03:35:35.280Z,97494.28
2023-03-26T03:38:02.305Z,97494.75
2023-03-26T03:40:39.658Z,97495.57
2023-03-26T03:43:06.770Z,97493.13
2023-03-26T03:45:40.506Z,97492.44
2023-03-26T03:48:15.666Z,97490.40
2023-03-26T03:50:45.332Z,97497.79
2023-03-26T03:53:22.092Z,97495.93
2023-03-26T03:55:53.912Z,97495.28
2023-03-26T03:58:23.907Z,97495.02
2023-03-26T04:00:52.652Z,97494.61
2023-03-26T04:03:39.084Z,97491.94
2023-03-26T04:06:11.223Z,97494.51
2023-03-26T04:08:38.879Z,97495.77
2023-03-26T04:11:06.930Z,97500.56
2023-03-26T04:13:49.275Z,97500.66
2023-03-26T04:16:26.156Z,97497.00
2023-03-26T04:18:53.031Z,97496.30
2023-03-26T04:21:20.135Z,97499.50
2023-03-26T04:23:47.658Z,97498.60
2023-03-26T04:26:23.312Z,97495.63
2023-03-26T04:29:05.026Z,97493.20
2023-03-26T04:31:34.254Z,97490.88
2023-03-26T04:34:08.699Z,97499.09
2023-03-26T04:36:42.988Z,97494.41
2023-03-26T04:39:13.308Z,97490.74
2023-03-26T04:42:00.627Z,97487.84
2023-03-26T04:44:35.030Z,97485.13
2023-03-26T04:47:06.600Z,97481.85
2023-03-26T04:49:39.000Z,97482.08
2023-03-26T04:52:06.051Z,97480.95
2023-03-26T04:54:48.799Z,97481.21
2023-03-26T04:57:24.542Z,97485.01
2023-03-26T04:59:58.462Z,97482.81
2023-03-26T05:02:26.254Z,97483.60
2023-03-26T05:04:54.826Z,97485.15
2023-03-26T05:07:24.186Z,97481.65
2023-03-26T05:09:54.679Z,97487.92
2023-03-26T05:12:23.435Z,97483.80
2023-03-26T05:14:54.006Z,97488.97
2023-03-26T05:17:31.089Z,97493.00
2023-03-26T05:19:58.242Z,97490.05
2023-03-26T05:22:26.503Z,97483.21
2023-03-26T05:25:13.431Z,97481.48
2023-03-26T05:27:40.411Z,97482.74
2023-03-26T05:30:08.492Z,97480.14
2023-03-26T05:32:41.689Z,97473.73
2023-03-26T05:35:09.390Z,97476.19
2023-03-26T05:37:38.966Z,97479.71
2023-03-26T05:40:14.254Z,97479.33
2023-03-26T05:42:46.110Z,97479.84
2023-03-26T05:45:27.140Z,97478.88
2023-03-26T05:47:55.872Z,97484.05
2023-03-26T05:50:24.114Z,97486.27
2023-03-26T05:52:52.769Z,97486.39
2023-03-26T05:55:35.274Z,97488.56
2023-03-26T05:58:17.118Z,97493.18
2023-03-26T06:01:06.052Z,97495.44
2023-03-26T06:03:45.931Z,97497.86
2023-03-26T06:06:19.399Z,97495.30
2023-03-26T06:09:01.578Z,97496.45
2023-03-26T06:11:31.929Z,97497.98
2023-03-26T06:14:00.828Z,97500.42
2023-03-26T06:16:28.353Z,97502.36
2023-03-26T06:19:05.568Z,97501.55
2023-03-26T06:21:46.297Z,97503.08
2023-03-26T06:24:20.870Z,97504.05
2023-03-26T06:27:07.682Z,97504.31
2023-03-26T06:29:50.318Z,97505.94
2023-03-26T06:32:20.823Z,97508.33
2023-03-26T06:34:54.039Z,97509.27
2023-03-26T06:37:21.657Z,97506.59
2023-03-26T06:39:50.791Z,97508.27
2023-03-26T06:42:20.484Z,97509.77
2023-03-26T06:44:47.327Z,97508.59
2023-03-26T06:47:29.536Z,97507.34
2023-03-26T06:50:11.940Z,97504.85
2023-03-26T06:52:55.467Z,97502.16
2023-03-26T06:55:38.056Z,97497.14
2023-03-26T06:58:20.696Z,97495.52
2023-03-26T07:01:07.595Z,97502.17
2023-03-26T07:03:49.992Z,97499.44
2023-03-26T07:06:36.901Z,97501.01
2023-03-26T07:09:19.792Z,97493.82
2023-03-26T07:12:07.023Z,97496.48
2023-03-26T07:14:49.415Z,97499.73
2023-03-26T07:17:31.657Z,97500.14
2023-03-26T07:20:14.333Z,97499.82
2023-03-26T07:22:42.583Z,97501.77
2023-03-26T07:25:15.827Z,97497.92
2023-03-26T07:28:20.893Z,97496.94
2023-03-26T07:31:15.778Z,97488.09
2023-03-26T07:34:23.705Z,97482.87
2023-03-26T07:37:09.189Z,97486.44
2023-03-26T07:39:59.312Z,97484.94
2023-03-26T07:42:49.954Z,97488.42
2023-03-26T07:45:41.294Z,97492.02
2023-03-26T07:48:27.200Z,97489.68
2023-03-26T07:51:10.991Z,97486.79
2023-03-26T07:53:52.363Z,97490.48
2023-03-26T07:56:48.984Z,97493.13
2023-03-26T07:59:44.691Z,97491.05
2023-03-26T08:02:41.296Z,97496.06
2023-03-26T08:05:31.226Z,97499.36
2023-03-26T08:08:23.148Z,97501.20
2023-03-26T08:11:04.445Z,97500.90
2023-03-26T08:13:53.630Z,97501.46
2023-03-26T08:16:32.122Z,97499.27
2023-03-26T08:19:10.937Z,97493.68
2023-03-26T08:21:48.260Z,97496.19
2023-03-26T08:24:30.976Z,97488.30
2023-03-26T08:27:02.878Z,97489.62
2023-03-26T08:29:45.373Z,97493.30
2023-03-26T08:32:16.737Z,97483.29
2023-03-26T08:34:43.806Z,97478.73
2023-03-26T08:37:12.380Z,97479.92
2023-03-26T08:39:40.152Z,97470.61
2023-03-26T08:42:10.772Z,97467.83
2023-03-26T08:44:54.160Z,97464.84
2023-03-26T08:47:38.302Z,97465.83
2023-03-26T08:50:40.349Z,97467.96
2023-03-26T08:53:25.968Z,97470.98
2023-03-26T08:56:03.735Z,97467.15
2023-03-26T08:58:46.412Z,97464.33
2023-03-26T09:01:45.608Z,97465.59
2023-03-26T09:04:31.329Z,97461.52
2023-03-26T09:07:25.928Z,97460.59
2023-03-26T09:10:15.799Z,97460.64
2023-03-26T09:12:58.199Z,97462.33
2023-03-26T09:15:48.004Z,97454.14
2023-03-26T09:18:24.775Z,97452.90
2023-03-26T09:21:19.168Z,97449.55
2023-03-26T09:24:16.586Z,97452.77
2023-03-26T09:27:14.160Z,97449.40
2023-03-26T09:29:56.907Z,97447.98
2023-03-26T09:32:47.100Z,97442.71
2023-03-26T09:35:33.512Z,97443.24
2023-03-26T09:38:11.287Z,97439.50
2023-03-26T09:40:44.175Z,97442.64
2023-03-26T09:43:33.795Z,97441.95
2023-03-26T09:46:12.266Z,97439.42
2023-03-26T09:48:48.646Z,97433.11
2023-03-26T09:51:43.591Z,97427.95
2023-03-26T09:54:18.197Z,97417.58
2023-03-26T09:56:46.319Z,97424.42
2023-03-26T09:59:36.234Z,97421.30
2023-03-26T10:02:18.625Z,97414.83
2023-03-26T10:05:05.179Z,97415.36
2023-03-26T10:07:49.176Z,97416.59
2023-03-26T10:10:30.983Z,97420.31
2023-03-26T10:13:15.045Z,97409.02
2023-03-26T10:15:42.051Z,97409.38
2023-03-26T10:18:29.163Z,97412.23
2023-03-26T10:21:17.533Z,97407.67
2023-03-26T10:24:00.060Z,97408.77
2023-03-26T10:26:39.030Z,97420.32
2023-03-26T10:29:26.977Z,97426.92
2023-03-26T10:32:18.045Z,97430.30
2023-03-26T10:35:06.099Z,97430.86
2023-03-26T10:38:03.632Z,97427.83
2023-03-26T10:40:32.616Z,97429.61
2023-03-26T10:43:23.066Z,97430.72
2023-03-26T10:46:14.972Z,97432.95
2023-03-26T10:49:01.020Z,97427.95
2023-03-26T10:51:35.312Z,97426.52
2023-03-26T10:54:13.109Z,97428.55
2023-03-26T10:56:51.300Z,97429.23
2023-03-26T10:59:19.203Z,97427.23
2023-03-26T11:02:21.251Z,97421.61
2023-03-26T11:05:11.837Z,97416.54
2023-03-26T11:08:01.764Z,97413.06
2023-03-26T11:10:49.811Z,97407.05
2023-03-26T11:13:32.097Z,97407.94
2023-03-26T11:16:12.621Z,97405.92
2023-03-26T11:18:53.447Z,97402.69
2023-03-26T11:21:29.567Z,97398.29
2023-03-26T11:24:04.818Z,97389.29
2023-03-26T11:26:52.971Z,97389.11
2023-03-26T11:29:42.022Z,97387.71
2023-03-26T11:32:14.084Z,97388.37
2023-03-26T11:34:58.482Z,97383.33
2023-03-26T11:37:43.812Z,97381.52
2023-03-26T11:40:21.425Z,97378.87
2023-03-26T11:42:53.168Z,97372.33
2023-03-26T11:45:24.299Z,97370.41
2023-03-26T11:47:56.619Z,97369.39
2023-03-26T11:50:30.054Z,97360.77
2023-03-26T11:53:03.222Z,97353.36
2023-03-26T11:55:31.729Z,97353.55
2023-03-26T11:58:00.287Z,97354.66
2023-03-26T12:00:29.003Z,97356.15
2023-03-26T12:02:58.724Z,97350.34
2023-03-26T12:05:34.266Z,97347.66
2023-03-26T12:08:19.759Z,97343.45
2023-03-26T12:11:00.276Z,97340.90
2023-03-26T12:13:42.380Z,97337.30
2023-03-26T12:16:14.462Z,97333.48
2023-03-26T12:18:44.073Z,97328.64
2023-03-26T12:21:16.117Z,97322.63
2023-03-26T12:24:00.334Z,97316.58
2023-03-26T12:26:34.422Z,97319.55
2023-03-26T12:29:15.466Z,97315.08
2023-03-26T12:31:45.937Z,97309.92
2023-03-26T12:34:16.880Z,97305.73
2023-03-26T12:36:54.554Z,97301.40
2023-03-26T12:40:07.414Z,97294.52
2023-03-26T12:44:44.806Z,97300.41
2023-03-26T12:45:28.625Z,97293.56
2023-03-26T12:48:03.510Z,97294.86
2023-03-26T12:50:39.772Z,97285.89
2023-03-26T12:53:26.549Z,97284.34
2023-03-26T12:56:00.647Z,97278.73
2023-03-26T12:58:43.344Z,97274.70
2023-03-26T13:01:18.702Z,97270.41
2023-03-26T13:04:02.072Z,97268.48
2023-03-26T13:06:59.112Z,97263.65
2023-03-26T13:09:33.355Z,97262.06
2023-03-26T13:12:15.595Z,97262.39
2023-03-26T13:15:04.409Z,97258.67
2023-03-26T13:17:34.522Z,97256.46
2023-03-26T13:20:11.889Z,97247.44
2023-03-26T13:22:56.450Z,97245.77
2023-03-26T13:25:57.915Z,97243.30
2023-03-26T13:28:41.272Z,97241.07
2023-03-26T13:31:25.138Z,97241.31
2023-03-26T13:34:01.712Z,97234.35
2023-03-26T13:36:59.265Z,97232.54
2023-03-26T13:39:42.254Z,97227.34
2023-03-26T13:42:33.727Z,97227.94
2023-03-26T13:45:17.314Z,97225.98
2023-03-26T13:47:49.178Z,97228.68
2023-03-26T13:50:24.538Z,97232.83
2023-03-26T13:52:58.976Z,97227.84
2023-03-26T13:55:43.780Z,97225.89
2023-03-26T13:58:17.888Z,97222.73
2023-03-26T14:00:54.885Z,97221.98
2023-03-26T14:03:26.685Z,97227.75
2023-03-26T14:05:57.600Z,97228.36
2023-03-26T14:08:29.718Z,97224.51
2023-03-26T14:11:11.020Z,97221.30
2023-03-26T14:14:07.628Z,97224.18
2023-03-26T14:16:45.789Z,97221.51
2023-03-26T14:19:39.087Z,97215.48
2023-03-26T14:22:37.160Z,97220.48
2023-03-26T14:25:23.032Z,97218.79
2023-03-26T14:28:13.349Z,97217.02
2023-03-26T14:30:57.381Z,97217.48
2023-03-26T14:33:55.588Z,97214.86
2023-03-26T14:36:38.772Z,97215.08
2023-03-26T14:39:22.441Z,97221.17
2023-03-26T14:41:56.562Z,97215.33
2023-03-26T14:44:23.399Z,97215.21
2023-03-26T14:47:21.079Z,97212.98
2023-03-26T14:49:53.667Z,97214.89
2023-03-26T14:52:31.145Z,97213.09
2023-03-26T14:55:03.838Z,97209.06
2023-03-26T14:58:02.186Z,97207.96
2023-03-26T15:00:34.826Z,97207.23
2023-03-26T15:03:38.795Z,97204.96
2023-03-26T15:06:21.221Z,97199.14
2023-03-26T15:08:49.019Z,97200.43
2023-03-26T15:11:41.817Z,97192.08
2023-03-26T15:14:39.246Z,97191.91
2023-03-26T15:17:10.883Z,97185.80
2023-03-26T15:19:53.282Z,97188.00
2023-03-26T15:22:26.102Z,97187.48
2023-03-26T15:25:09.532Z,97178.05
2023-03-26T15:27:38.968Z,97174.02
2023-03-26T15:30:21.434Z,97175.48
2023-03-26T15:33:10.504Z,97172.45
2023-03-26T15:36:12.403Z,97168.88
2023-03-26T15:39:03.164Z,97161.11
2023-03-26T15:41:53.559Z,97161.98
2023-03-26T15:44:53.109Z,97158.94
2023-03-26T15:47:42.891Z,97159.09
2023-03-26T15:50:25.152Z,97157.88
2023-03-26T15:53:07.637Z,97154.34
2023-03-26T15:55:45.941Z,97158.02
2023-03-26T15:58:34.631Z,97153.87
2023-03-26T16:01:19.204Z,97156.33
2023-03-26T16:04:09.156Z,97155.22
2023-03-26T16:06:48.410Z,97156.88
2023-03-26T16:09:32.550Z,97153.77
2023-03-26T16:12:23.797Z,97152.64
2023-03-26T16:15:05.704Z,97152.66
2023-03-26T16:18:09.376Z,97152.48
2023-03-26T16:20:54.273Z,97147.58
2023-03-26T16:23:34.018Z,97150.83
2023-03-26T16:26:20.041Z,97150.18
2023-03-26T16:28:46.981Z,97149.79
2023-03-26T16:31:36.580Z,97154.45
2023-03-26T16:34:21.714Z,97151.39
2023-03-26T16:36:51.458Z,97152.36
2023-03-26T16:39:25.130Z,97150.67
2023-03-26T16:42:06.160Z,97151.58
2023-03-26T16:44:40.586Z,97148.03
2023-03-26T16:47:37.418Z,97146.63
2023-03-26T16:50:20.970Z,97139.91
2023-03-26T16:52:55.469Z,97140.68
2023-03-26T16:55:22.270Z,97141.98
2023-03-26T16:57:56.271Z,97142.48
2023-03-26T17:00:24.634Z,97138.70
2023-03-26T17:03:04.567Z,97142.42
2023-03-26T17:05:37.653Z,97150.36
2023-03-26T17:08:13.382Z,97146.87
2023-03-26T17:10:56.759Z,97145.23
2023-03-26T17:13:44.850Z,97145.78
2023-03-26T17:16:29.968Z,97148.58
2023-03-26T17:19:07.135Z,97148.05
2023-03-26T17:22:01.460Z,97150.48
2023-03-26T17:24:44.955Z,97153.35
2023-03-26T17:27:58.894Z,97151.58
2023-03-26T17:30:42.165Z,97151.35
2023-03-26T17:33:14.965Z,97151.92
2023-03-26T17:35:44.555Z,97148.20
2023-03-26T17:38:26.785Z,97148.74
2023-03-26T17:40:58.586Z,97149.45
2023-03-26T17:43:36.431Z,97145.53
2023-03-26T17:46:06.263Z,97146.03
2023-03-26T17:48:39.440Z,97149.58
2023-03-26T17:51:22.673Z,97151.04
2023-03-26T17:53:53.035Z,97150.33
2023-03-26T17:56:27.846Z,97152.02
2023-03-26T17:59:11.447Z,97148.20
2023-03-26T18:01:42.431Z,97147.91
2023-03-26T18:04:20.461Z,97142.65
2023-03-26T18:07:06.267Z,97143.16
2023-03-26T18:09:48.639Z,97138.61
2023-03-26T18:12:16.995Z,97141.44
2023-03-26T18:14:59.405Z,97139.06
2023-03-26T18:17:26.278Z,97140.90
2023-03-26T18:19:55.635Z,97141.68
2023-03-26T18:22:26.708Z,97143.45
2023-03-26T18:24:59.874Z,97147.72
2023-03-26T18:27:35.610Z,97149.23
2023-03-26T18:30:29.677Z,97149.89
2023-03-26T18:33:02.892Z,97151.84
2023-03-26T18:35:46.545Z,97151.56
2023-03-26T18:38:35.105Z,97150.61
2023-03-26T18:41:05.942Z,97149.12
2023-03-26T18:43:35.536Z,97145.79
2023-03-26T18:46:13.787Z,97147.87
2023-03-26T18:48:41.200Z,97149.48
2023-03-26T18:51:08.495Z,97146.23
2023-03-26T18:53:39.493Z,97141.89
2023-03-26T18:56:36.968Z,97145.51
2023-03-26T18:59:07.942Z,97150.19
2023-03-26T19:01:37.431Z,97152.90
2023-03-26T19:04:07.028Z,97155.39
2023-03-26T19:06:54.218Z,97151.25
2023-03-26T19:09:31.625Z,97153.26
2023-03-26T19:12:07.336Z,97150.70
2023-03-26T19:14:51.065Z,97147.55
2023-03-26T19:17:18.375Z,97142.89
2023-03-26T19:19:45.222Z,97145.08
2023-03-26T19:22:13.037Z,97145.17
2023-03-26T19:24:41.280Z,97145.54
2023-03-26T19:27:08.753Z,97146.59
2023-03-26T19:29:36.601Z,97146.10
2023-03-26T19:32:06.613Z,97145.52
2023-03-26T19:34:38.645Z,97140.41
2023-03-26T19:37:21.682Z,97142.83
2023-03-26T19:39:53.934Z,97141.55
2023-03-26T19:42:44.052Z,97135.08
2023-03-26T19:45:19.765Z,97132.11
2023-03-26T19:47:57.357Z,97133.02
2023-03-26T19:50:34.142Z,97128.71
2023-03-26T19:53:24.374Z,97127.13
2023-03-26T19:55:56.601Z,97133.19
2023-03-26T19:58:24.324Z,97128.25
2023-03-26T20:00:51.337Z,97127.23
2023-03-26T20:03:25.846Z,97121.64
2023-03-26T20:05:52.795Z,97116.71
2023-03-26T20:08:27.122Z,97125.66
2023-03-26T20:10:56.603Z,97124.93
2023-03-26T20:13:23.724Z,97129.73
2023-03-26T20:16:05.079Z,97132.16
2023-03-26T20:18:34.537Z,97133.27
2023-03-26T20:21:01.593Z,97131.30
2023-03-26T20:23:29.094Z,97130.33
2023-03-26T20:25:56.444Z,97133.43
2023-03-26T20:28:24.647Z,97132.71
2023-03-26T20:30:54.796Z,97126.55
2023-03-26T20:33:26.818Z,97121.31
2023-03-26T20:35:55.725Z,97113.91
2023-03-26T20:38:36.696Z,97106.38
2023-03-26T20:41:09.794Z,97106.14
2023-03-26T20:43:36.630Z,97102.53
2023-03-26T20:46:04.135Z,97094.27
2023-03-26T20:48:31.656Z,97086.42
2023-03-26T20:50:58.461Z,97081.83
2023-03-26T20:53:26.229Z,97081.90
2023-03-26T20:55:53.061Z,97080.66
2023-03-26T20:58:31.790Z,97081.60
2023-03-26T21:01:01.675Z,97079.29
2023-03-26T21:03:28.601Z,97075.29
2023-03-26T21:05:59.874Z,97073.86
2023-03-26T21:08:30.260Z,97070.70
2023-03-26T21:11:02.072Z,97062.77
2023-03-26T21:13:41.438Z,97056.67
2023-03-26T21:16:11.005Z,97055.39
2023-03-26T21:18:38.543Z,97052.27
2023-03-26T21:21:28.634Z,97052.61
2023-03-26T21:24:06.058Z,97049.64
2023-03-26T21:26:41.628Z,97049.72
2023-03-26T21:29:08.818Z,97045.01
2023-03-26T21:31:38.124Z,97044.64
2023-03-26T21:34:05.700Z,97044.30
2023-03-26T21:36:33.446Z,97044.07
2023-03-26T21:39:01.334Z,97044.96
2023-03-26T21:41:41.713Z,97049.88
2023-03-26T21:44:08.787Z,97053.41
2023-03-26T21:46:35.990Z,97052.41
2023-03-26T21:49:03.056Z,97050.04
2023-03-26T21:51:30.154Z,97045.02
2023-03-26T21:53:57.289Z,97043.65
2023-03-26T21:56:50.560Z,97043.07
2023-03-26T21:59:39.301Z,97038.13
2023-03-26T22:02:18.856Z,97031.89
2023-03-26T22:04:57.719Z,97026.02
2023-03-26T22:07:34.508Z,97022.29
2023-03-26T22:10:01.280Z,97019.17
2023-03-26T22:12:28.230Z,97012.91
2023-03-26T22:14:55.236Z,97005.84
2023-03-26T22:17:23.068Z,97008.41
2023-03-26T22:19:49.809Z,97010.00
2023-03-26T22:22:16.662Z,97009.42
2023-03-26T22:24:44.028Z,97014.01
2023-03-26T22:27:12.937Z,97014.27
2023-03-26T22:29:40.021Z,97014.42
2023-03-26T22:32:06.742Z,97016.29
2023-03-26T22:34:35.214Z,97011.67
2023-03-26T22:37:02.057Z,97013.35
2023-03-26T22:39:28.866Z,97012.11
2023-03-26T22:41:55.806Z,97009.77
2023-03-26T22:44:22.763Z,97004.77
2023-03-26T22:46:51.649Z,96999.80
2023-03-26T22:49:19.002Z,96988.40
2023-03-26T22:51:45.785Z,96988.05
2023-03-26T22:54:12.639Z,96986.10
2023-03-26T22:56:39.487Z,96986.80
2023-03-26T22:59:06.351Z,96990.36
2023-03-26T23:01:33.194Z,96988.52
2023-03-26T23:04:00.005Z,96989.45
2023-03-26T23:06:26.951Z,96987.98
2023-03-26T23:08:54.441Z,96982.78
2023-03-26T23:11:22.217Z,96981.48
2023-03-26T23:13:49.589Z,96974.61
2023-03-26T23:16:17.656Z,96972.23
2023-03-26T23:18:45.217Z,96965.67
2023-03-26T23:21:14.619Z,96967.75
2023-03-26T23:23:41.686Z,96963.20
2023-03-26T23:26:08.504Z,96957.73
2023-03-26T23:28:35.934Z,96961.80
2023-03-26T23:31:05.397Z,96964.65
2023-03-26T23:33:35.544Z,96959.15
2023-03-26T23:36:08.897Z,96961.04
2023-03-26T23:38:43.553Z,96960.76
2023-03-26T23:41:15.437Z,96963.16
2023-03-26T23:43:53.493Z,96959.64
2023-03-26T23:46:25.404Z,96962.42
2023-03-26T23:48:53.177Z,96961.77
2023-03-26T23:51:21.649Z,96955.42
2023-03-26T23:53:49.507Z,96949.95
2023-03-26T23:56:17.123Z,96945.40
2023-03-26T23:58:43.993Z,96944.94
